EDT,Max TemperatureF,Mean TemperatureF,Min TemperatureF,Max Dew PointF,MeanDew PointF,Min DewpointF,Max Humidity, Mean Humidity, Min Humidity, Max Sea Level PressureIn, Mean Sea Level PressureIn, Min Sea Level PressureIn, Max VisibilityMiles, Mean VisibilityMiles, Min VisibilityMiles, Max Wind SpeedMPH, Mean Wind SpeedMPH, Max Gust SpeedMPH,PrecipitationIn, CloudCover, Events, WindDirDegrees
2012-8-1,91,79,66,72,68,65,93,74,55,29.99,29.91,29.85,10,10,7,18,5,22,T,3,Rain-Thunderstorm,230
2012-8-2,93,80,67,69,66,63,93,66,38,29.96,29.89,29.83,10,10,10,14,4,17,0.00,1,Rain-Thunderstorm,246
2012-8-3,83,78,72,73,71,66,87,76,65,30.00,29.95,29.85,10,9,7,16,6,21,0.04,5,Rain-Thunderstorm,251
2012-8-4,90,80,69,74,71,68,97,77,56,30.11,30.05,29.99,10,10,6,23,3,30,T,5,Rain-Thunderstorm,334
2012-8-5,92,82,71,72,69,66,93,71,49,30.19,30.12,30.07,10,10,7,21,6,29,T,3,Rain-Thunderstorm,245
2012-8-6,84,77,69,72,70,67,100,83,65,30.16,30.08,29.99,10,9,2,9,2,17,T,3,Rain,1
2012-8-7,90,81,72,73,71,66,93,72,50,30.05,29.99,29.91,10,8,2,13,2,14,0.47,6,Rain-Thunderstorm,350
2012-8-8,92,82,72,71,69,60,93,65,36,30.02,29.97,29.91,10,10,10,9,3,12,0.00,2,,207
2012-8-9,86,77,67,71,67,63,100,81,61,30.03,29.92,29.83,10,8,0,49,3,61,2.24,5,Fog-Rain-Thunderstorm,355
2012-8-10,81,75,68,72,68,64,93,81,69,29.89,29.84,29.80,10,9,2,21,8,25,0.51,6,Rain-Thunderstorm,224
2012-8-11,82,74,65,67,58,51,90,63,36,29.99,29.92,29.86,10,10,10,13,5,17,0.00,4,,349
2012-8-12,82,70,58,62,58,53,93,65,37,30.05,30.01,29.98,10,10,10,12,4,15,0.00,1,,56
2012-8-13,82,72,62,63,61,58,93,69,45,30.04,30.00,29.91,10,10,10,18,4,23,T,2,Rain,255
2012-8-14,84,74,64,70,65,61,93,76,58,29.99,29.94,29.86,10,8,1,13,4,16,0.73,6,Rain-Thunderstorm,272
2012-8-15,84,76,67,70,65,57,93,68,43,30.01,29.96,29.90,10,9,2,15,4,21,0.01,3,Rain,252
2012-8-16,87,75,63,65,62,55,100,68,35,30.08,30.02,29.91,10,7,1,8,2,22,0.00,1,,313
2012-8-17,81,75,68,67,65,62,90,72,54,29.97,29.93,29.88,10,10,7,13,5,15,T,4,,248
2012-8-18,85,77,69,67,63,57,84,62,40,29.96,29.89,29.83,10,10,6,10,3,14,0.00,5,,4
2012-8-19,81,73,65,67,65,62,93,76,58,29.92,29.87,29.83,10,9,6,14,4,20,0.08,6,Rain,227
2012-8-20,83,72,60,64,59,52,100,67,34,29.98,29.93,29.88,10,6,0,9,3,14,0.00,4,Fog,277
2012-8-21,84,71,58,61,56,48,93,63,32,30.06,30.02,29.98,10,10,7,9,2,13,0.00,1,,8
2012-8-22,85,72,58,60,55,46,90,59,27,30.13,30.08,30.04,10,10,10,8,1,21,0.00,1,,356
2012-8-23,87,73,59,62,58,55,90,63,35,30.15,30.10,30.05,10,10,9,9,2,13,0.00,1,,5
2012-8-24,89,76,63,63,61,58,93,65,36,30.15,30.08,30.02,10,10,7,9,2,12,0.00,1,,269
2012-8-25,88,76,64,65,62,57,93,65,36,30.15,30.10,30.04,10,10,6,8,3,14,0.00,1,,353
2012-8-26,90,78,65,66,64,58,93,64,34,30.17,30.10,30.04,10,9,6,8,1,13,0.00,2,,12
2012-8-27,91,79,66,66,64,57,93,63,32,30.13,30.04,29.96,10,10,7,10,2,17,0.00,1,,42
2012-8-28,93,80,66,72,65,58,93,63,32,30.01,29.96,29.89,10,10,4,16,3,20,0.05,3,Rain,259
2012-8-29,92,82,72,72,69,66,93,70,47,30.01,29.95,29.89,10,10,9,8,2,10,0.01,4,Rain-Thunderstorm,301
2012-8-30,86,78,70,73,70,66,90,76,61,30.11,30.04,29.95,10,10,7,8,2,10,0.00,2,,333
2012-8-31,88,80,71,72,70,68,93,75,57,30.22,30.15,30.11,10,10,7,10,2,15,0.00,3,,270